メインページ
METAR-TAF:

METAR-TAF

空港 :

Peace River, アルバータ州, カナダ

緯度: 56-14N, 経度: 117-26W, 海抜: 571m

現時点の気象観測

当レポートは23分前の01:00(UTC)に作成
北東の風 8kt、北/北西から東/北東の間で変化する
気温 20°C
湿度 23%
気圧 1012 hPa
視程: 8.0km
高度9400ftの千切れ雲あり

METAR: CYPE 240100Z 05008KT 340V060 5SM FU BKN094 20/M02 A2987 RMK FU3AC4 SLP126 DENSITY ALT 3000FT

時間: 19:23 (01:23 UTC)

予報

当レポートは45分前の00:38(UTC)に作成
予報は24日の 01時(UTC)から 24日の 13時(UTC)まで有効
北東の風 6kt
視程: 4.8km
高度7000ftの千切れ雲あり
24日の 02時(UTC)から 24日の 06時(UTC)まで一時的に
視程: 9.7km
弱いにわか雨, 煙
24日の 0600時(UTC)から
の風 8kt
視程: 3.2km
高度7000ftの千切れ雲あり
24日の 06時(UTC)から 24日の 13時(UTC)まで一時的に
視程: 8.0km

TAF: CYPE 240038Z 2401/2413 04006KT 3SM FU BKN070 TEMPO 2402/2406 6SM -SHRA FU FM240600 01008KT 2SM FU BKN070 TEMPO 2406/2413 5SM FU RMK NXT FCST BY 240700Z

4,000以上の空港の気象観測と天気予報(METAR報とTAF報)

利用可能な観測所は地図上に黄色い丸と赤い丸で示す。

丸の上にカーソルを重ねると観測所名を参照できる。

次にクリックすると気象観測と天気予報を参照できる。

マップの切り替え:黒色「×」印の緑ボタンをクリックして拡大、「-」印の緑ボタンをクリックして縮小、緑色の三角印をクリックして隣りの地図に切り替え


METAR-TAF: